createdAt,value
2019-03-01T00:01:02.055Z,22.53
2019-03-01T00:03:34.873Z,13.70
2019-03-01T00:07:00.136Z,17.73
2019-03-01T00:10:09.610Z,13.20
2019-03-01T00:12:58.777Z,14.73
2019-03-01T00:15:43.521Z,18.00
2019-03-01T00:18:54.792Z,14.63
2019-03-01T00:21:57.963Z,8.97
2019-03-01T00:24:54.552Z,10.10
2019-03-01T00:27:54.776Z,10.87
2019-03-01T00:31:01.333Z,10.03
2019-03-01T00:33:54.576Z,16.50
2019-03-01T00:36:54.478Z,11.40
2019-03-01T00:40:04.038Z,16.07
2019-03-01T00:43:14.201Z,13.63
2019-03-01T00:45:43.563Z,16.07
2019-03-01T00:48:12.172Z,13.40
2019-03-01T00:50:40.876Z,14.60
2019-03-01T00:53:09.605Z,21.57
2019-03-01T00:55:38.241Z,13.10
2019-03-01T00:58:06.880Z,23.40
2019-03-01T01:00:40.575Z,18.37
2019-03-01T01:03:09.289Z,13.77
2019-03-01T01:05:38.003Z,12.13
2019-03-01T01:08:06.770Z,11.00
2019-03-01T01:10:35.411Z,26.40
2019-03-01T01:13:04.125Z,15.07
2019-03-01T01:15:32.845Z,16.03
2019-03-01T01:18:01.547Z,13.30
2019-03-01T01:20:30.251Z,8.30
2019-03-01T01:22:58.877Z,12.20
2019-03-01T01:25:27.522Z,8.93
2019-03-01T01:27:56.187Z,15.70
2019-03-01T01:30:24.803Z,18.17
2019-03-01T01:32:53.481Z,15.13
2019-03-01T01:35:22.114Z,12.43
2019-03-01T01:37:50.751Z,11.90
2019-03-01T01:40:19.369Z,13.40
2019-03-01T01:42:48.058Z,14.50
2019-03-01T01:45:16.787Z,11.40
2019-03-01T01:47:45.412Z,9.27
2019-03-01T01:50:14.175Z,7.37
2019-03-01T01:52:42.861Z,9.37
2019-03-01T01:55:11.555Z,11.57
2019-03-01T01:57:40.180Z,10.20
2019-03-01T02:00:09.955Z,10.70
2019-03-01T02:02:38.581Z,12.80
2019-03-01T02:05:07.912Z,7.70
2019-03-01T02:07:36.569Z,7.50
2019-03-01T02:10:06.047Z,9.00
2019-03-01T02:12:34.764Z,8.50
2019-03-01T02:15:03.505Z,7.87
2019-03-01T02:17:32.116Z,11.17
2019-03-01T02:20:00.774Z,9.20
2019-03-01T02:22:29.471Z,8.50
2019-03-01T02:24:58.153Z,10.57
2019-03-01T02:27:30.542Z,7.40
2019-03-01T02:30:00.620Z,6.30
2019-03-01T02:32:33.399Z,5.07
2019-03-01T02:35:02.116Z,7.17
2019-03-01T02:37:30.740Z,6.83
2019-03-01T02:39:59.470Z,6.07
2019-03-01T02:42:28.082Z,4.93
2019-03-01T02:44:56.739Z,7.50
2019-03-01T02:47:25.352Z,6.93
2019-03-01T02:49:53.974Z,8.63
2019-03-01T02:52:22.586Z,8.40
2019-03-01T02:54:51.288Z,5.63
2019-03-01T02:57:19.936Z,7.10
2019-03-01T02:59:48.581Z,9.50
2019-03-01T03:02:17.205Z,10.37
2019-03-01T03:04:45.949Z,8.03
2019-03-01T03:07:19.740Z,7.73
2019-03-01T03:09:48.388Z,9.00
2019-03-01T03:12:17.019Z,10.03
2019-03-01T03:14:45.699Z,6.00
2019-03-01T03:17:14.328Z,7.50
2019-03-01T03:19:42.957Z,10.30
2019-03-01T03:22:11.602Z,9.40
2019-03-01T03:24:40.315Z,10.77
2019-03-01T03:27:09.016Z,10.20
2019-03-01T03:29:37.684Z,6.17
2019-03-01T03:32:06.305Z,14.83
2019-03-01T03:34:34.938Z,7.03
2019-03-01T03:37:03.664Z,12.67
2019-03-01T03:39:32.304Z,11.90
2019-03-01T03:42:00.929Z,7.37
2019-03-01T03:44:29.733Z,8.90
2019-03-01T03:46:58.399Z,9.67
2019-03-01T03:49:27.008Z,14.10
2019-03-01T03:51:55.643Z,11.80
2019-03-01T03:54:24.259Z,12.13
2019-03-01T03:56:52.975Z,12.73
2019-03-01T03:59:21.703Z,14.23
2019-03-01T04:01:50.463Z,14.43
2019-03-01T04:04:19.175Z,12.03
2019-03-01T04:06:47.871Z,9.93
2019-03-01T04:09:16.590Z,11.77
2019-03-01T04:11:45.218Z,14.23
2019-03-01T04:14:13.853Z,13.90
2019-03-01T04:16:42.519Z,12.97
2019-03-01T04:19:11.146Z,14.83
2019-03-01T04:21:39.781Z,13.53
2019-03-01T04:24:08.451Z,11.60
2019-03-01T04:26:37.098Z,13.47
2019-03-01T04:29:05.746Z,10.23
2019-03-01T04:31:34.449Z,15.50
2019-03-01T04:34:03.081Z,14.17
2019-03-01T04:36:31.709Z,11.97
2019-03-01T04:39:00.365Z,10.63
2019-03-01T04:41:29.006Z,11.10
2019-03-01T04:43:57.699Z,12.47
2019-03-01T04:46:26.313Z,15.27
2019-03-01T04:48:54.943Z,14.50
2019-03-01T04:51:23.561Z,14.60
2019-03-01T04:53:52.178Z,13.00
2019-03-01T04:56:21.864Z,14.20
2019-03-01T04:58:50.611Z,13.97
2019-03-01T05:01:19.245Z,16.20
2019-03-01T05:03:47.880Z,13.33
2019-03-01T05:06:16.576Z,15.97
2019-03-01T05:08:45.264Z,15.53
2019-03-01T05:11:13.914Z,15.37
2019-03-01T05:13:42.551Z,26.43
2019-03-01T05:16:11.264Z,19.70
2019-03-01T05:18:39.898Z,14.33
2019-03-01T05:21:08.571Z,16.20
2019-03-01T05:23:37.228Z,19.57
2019-03-01T05:26:05.848Z,17.80
2019-03-01T05:28:34.484Z,16.43
2019-03-01T05:31:03.210Z,14.00
2019-03-01T05:33:31.919Z,16.67
2019-03-01T05:36:00.649Z,17.03
2019-03-01T05:38:29.396Z,18.77
2019-03-01T05:40:58.026Z,18.23
2019-03-01T05:43:26.653Z,22.07
2019-03-01T05:45:55.291Z,14.60
2019-03-01T05:48:23.914Z,16.17
2019-03-01T05:50:52.562Z,15.50
2019-03-01T05:53:21.220Z,21.50
2019-03-01T05:55:49.878Z,17.13
2019-03-01T05:58:39.994Z,18.27
2019-03-01T06:01:39.676Z,18.03
2019-03-01T06:04:38.673Z,20.00
2019-03-01T06:07:45.245Z,21.03
2019-03-01T06:10:30.929Z,16.67
2019-03-01T06:13:56.051Z,20.67
2019-03-01T06:16:48.161Z,24.37
2019-03-01T06:19:44.922Z,19.83
2019-03-01T06:22:50.141Z,23.93
2019-03-01T06:25:49.959Z,23.77
2019-03-01T06:28:49.973Z,24.30
2019-03-01T06:31:51.625Z,18.37
2019-03-01T06:34:55.636Z,19.30
2019-03-01T06:38:12.442Z,19.83
2019-03-01T06:41:18.921Z,23.60
2019-03-01T06:44:22.450Z,18.80
2019-03-01T06:47:28.691Z,26.40
2019-03-01T06:50:02.211Z,21.00
2019-03-01T06:52:30.845Z,20.17
2019-03-01T06:54:59.484Z,17.97
2019-03-01T06:57:28.171Z,15.83
2019-03-01T07:00:00.380Z,18.53
2019-03-01T07:02:36.131Z,18.30
2019-03-01T07:05:05.285Z,20.73
2019-03-01T07:07:33.971Z,16.83
2019-03-01T07:10:02.636Z,21.80
2019-03-01T07:12:31.275Z,15.37
2019-03-01T07:14:59.967Z,20.00
2019-03-01T07:17:28.720Z,23.80
2019-03-01T07:19:57.412Z,20.03
2019-03-01T07:22:26.068Z,18.43
2019-03-01T07:24:54.723Z,21.40
2019-03-01T07:27:23.354Z,16.70
2019-03-01T07:29:51.981Z,17.03
2019-03-01T07:32:21.285Z,22.60
2019-03-01T07:34:49.939Z,20.43
2019-03-01T07:37:23.503Z,16.53
2019-03-01T07:39:52.205Z,24.30
2019-03-01T07:42:21.057Z,20.30
2019-03-01T07:44:49.707Z,22.07
2019-03-01T07:47:18.467Z,25.93
2019-03-01T07:49:47.201Z,20.93
2019-03-01T07:52:15.839Z,19.73
2019-03-01T07:54:44.503Z,20.17
2019-03-01T07:57:14.770Z,16.40
2019-03-01T07:59:43.499Z,18.80
2019-03-01T08:02:12.244Z,20.47
2019-03-01T08:04:40.986Z,17.27
2019-03-01T08:07:09.648Z,16.00
2019-03-01T08:09:41.370Z,15.53
2019-03-01T08:12:08.746Z,16.30
2019-03-01T08:14:37.430Z,17.30
2019-03-01T08:17:06.181Z,16.03
2019-03-01T08:19:34.820Z,17.07
2019-03-01T08:22:03.611Z,18.33
2019-03-01T08:24:32.346Z,16.50
2019-03-01T08:27:00.964Z,13.33
2019-03-01T08:29:30.751Z,15.43
2019-03-01T08:32:00.208Z,14.70
2019-03-01T08:34:28.891Z,12.50
2019-03-01T08:36:57.575Z,14.17
2019-03-01T08:39:43.434Z,14.53
2019-03-01T08:42:12.073Z,16.30
2019-03-01T08:44:40.855Z,15.70
2019-03-01T08:47:09.478Z,12.57
2019-03-01T08:50:03.056Z,14.57
2019-03-01T08:52:31.778Z,16.50
2019-03-01T08:55:03.504Z,13.30
2019-03-01T08:57:43.818Z,15.80
2019-03-01T09:00:11.099Z,13.60
2019-03-01T09:02:40.144Z,13.23
2019-03-01T09:05:09.930Z,13.00
2019-03-01T09:07:39.250Z,12.83
2019-03-01T09:10:09.724Z,14.10
2019-03-01T09:12:38.410Z,10.43
2019-03-01T09:15:08.535Z,12.10
2019-03-01T09:17:37.183Z,11.20
2019-03-01T09:20:06.378Z,13.20
2019-03-01T09:22:35.022Z,10.70
2019-03-01T09:25:07.543Z,12.50
2019-03-01T09:27:34.268Z,11.33
2019-03-01T09:30:03.937Z,7.43
2019-03-01T09:32:33.805Z,7.20
2019-03-01T09:35:20.531Z,9.70
2019-03-01T09:37:49.253Z,10.60
2019-03-01T09:40:17.944Z,9.40
2019-03-01T09:42:47.478Z,5.43
2019-03-01T09:45:19.253Z,6.70
2019-03-01T09:47:47.748Z,6.80
2019-03-01T09:50:16.513Z,6.00
2019-03-01T09:52:48.677Z,10.00
2019-03-01T09:55:17.596Z,6.50
2019-03-01T09:57:47.405Z,5.63
2019-03-01T10:00:17.623Z,10.20
2019-03-01T10:02:46.380Z,6.70
2019-03-01T10:05:15.370Z,9.50
2019-03-01T10:07:44.180Z,7.90
2019-03-01T10:10:13.666Z,8.57
2019-03-01T10:12:42.426Z,7.87
2019-03-01T10:15:12.140Z,7.83
2019-03-01T10:17:40.870Z,6.83
2019-03-01T10:20:11.722Z,12.00
2019-03-01T10:22:40.524Z,8.40
2019-03-01T10:25:10.998Z,6.30
2019-03-01T10:27:39.695Z,6.63
2019-03-01T10:30:11.993Z,6.20
2019-03-01T10:32:40.612Z,4.00
2019-03-01T10:35:09.681Z,4.20
2019-03-01T10:37:38.329Z,6.80
2019-03-01T10:40:07.962Z,4.57
2019-03-01T10:42:36.594Z,6.03
2019-03-01T10:45:06.485Z,4.60
2019-03-01T10:47:35.097Z,2.90
2019-03-01T10:50:04.015Z,4.13
2019-03-01T10:52:32.626Z,4.33
2019-03-01T10:55:01.302Z,4.37
2019-03-01T10:57:29.908Z,5.33
2019-03-01T10:59:58.545Z,3.10
2019-03-01T11:02:27.154Z,4.53
2019-03-01T11:04:55.786Z,5.10
2019-03-01T11:07:24.437Z,4.30
2019-03-01T11:09:53.066Z,4.60
2019-03-01T11:12:21.746Z,5.10
2019-03-01T11:14:50.388Z,7.40
2019-03-01T11:17:19.028Z,6.23
2019-03-01T11:19:47.726Z,5.27
2019-03-01T11:22:16.378Z,5.40
2019-03-01T11:24:45.036Z,5.47
2019-03-01T11:27:13.639Z,6.20
2019-03-01T11:29:42.351Z,7.67
2019-03-01T11:32:11.025Z,6.03
2019-03-01T11:34:39.674Z,6.93
2019-03-01T11:37:08.366Z,6.50
2019-03-01T11:39:37.138Z,6.87
2019-03-01T11:42:05.787Z,7.00
2019-03-01T11:44:34.410Z,8.23
2019-03-01T11:47:03.098Z,8.10
2019-03-01T11:49:31.709Z,6.93
2019-03-01T11:52:00.340Z,7.77
2019-03-01T11:54:28.958Z,7.67
2019-03-01T11:56:57.589Z,7.60
2019-03-01T11:59:26.242Z,7.33
2019-03-01T12:01:54.981Z,8.83
2019-03-01T12:04:23.594Z,7.43
2019-03-01T12:06:52.252Z,8.57
2019-03-01T12:09:20.848Z,9.20
2019-03-01T12:11:49.522Z,9.67
2019-03-01T12:14:18.153Z,10.93
2019-03-01T12:16:47.026Z,10.83
2019-03-01T12:19:15.893Z,14.10
2019-03-01T12:21:44.541Z,15.13
2019-03-01T12:24:13.181Z,15.90
2019-03-01T12:26:41.825Z,17.90
2019-03-01T12:29:10.490Z,19.90
2019-03-01T12:31:39.233Z,20.00
2019-03-01T12:34:07.853Z,20.90
2019-03-01T12:36:36.478Z,17.10
2019-03-01T12:39:09.780Z,17.63
2019-03-01T12:41:38.083Z,23.80
2019-03-01T12:44:06.720Z,17.83
2019-03-01T12:46:35.473Z,20.87
2019-03-01T12:49:04.099Z,21.30
2019-03-01T12:51:32.724Z,28.67
2019-03-01T12:54:01.633Z,32.50
2019-03-01T12:56:30.278Z,31.10
2019-03-01T12:58:58.994Z,33.47
2019-03-01T13:01:27.704Z,42.10
2019-03-01T13:03:56.351Z,39.13
2019-03-01T13:06:25.048Z,42.37
2019-03-01T13:08:53.678Z,45.53
2019-03-01T13:11:22.317Z,47.40
2019-03-01T13:13:51.015Z,49.60
2019-03-01T13:16:19.677Z,46.80
2019-03-01T13:18:51.406Z,46.47
2019-03-01T13:21:18.747Z,51.90
2019-03-01T13:23:47.390Z,50.73
2019-03-01T13:26:16.051Z,50.53
2019-03-01T13:28:46.983Z,49.57
2019-03-01T13:31:55.351Z,51.00
2019-03-01T13:34:39.340Z,52.70
2019-03-01T13:37:08.040Z,55.17
2019-03-01T13:39:36.684Z,57.70
2019-03-01T13:42:05.318Z,57.93
2019-03-01T13:44:36.069Z,59.20
2019-03-01T13:47:05.318Z,58.23
2019-03-01T13:49:40.063Z,63.03
2019-03-01T13:52:12.587Z,59.07
2019-03-01T13:54:46.314Z,60.53
2019-03-01T13:57:16.213Z,61.80
2019-03-01T13:59:55.876Z,63.27
2019-03-01T14:02:27.084Z,63.33
2019-03-01T14:04:56.955Z,69.33
2019-03-01T14:07:30.120Z,64.47
2019-03-01T14:10:00.806Z,61.80
2019-03-01T14:12:30.511Z,66.03
2019-03-01T14:15:11.244Z,67.80
2019-03-01T14:17:40.813Z,73.57
2019-03-01T14:20:19.147Z,74.50
2019-03-01T14:22:48.124Z,68.77
2019-03-01T14:25:16.666Z,68.50
2019-03-01T14:27:46.009Z,63.90
2019-03-01T14:30:25.313Z,68.80
2019-03-01T14:32:57.783Z,70.70
2019-03-01T14:35:27.155Z,71.80
2019-03-01T14:37:57.514Z,61.77
2019-03-01T14:40:26.711Z,68.10
2019-03-01T14:42:56.604Z,65.03
2019-03-01T14:45:25.993Z,74.57
2019-03-01T14:47:56.662Z,75.23
2019-03-01T14:50:26.306Z,66.30
2019-03-01T14:52:59.174Z,66.00
2019-03-01T14:55:36.484Z,65.53
2019-03-01T14:58:29.975Z,67.83
2019-03-01T15:01:08.011Z,66.87
2019-03-01T15:03:44.775Z,67.73
2019-03-01T15:06:19.108Z,69.57
2019-03-01T15:08:47.654Z,75.10
2019-03-01T15:11:29.947Z,74.60
2019-03-01T15:14:04.502Z,76.37
2019-03-01T15:16:33.164Z,85.57
2019-03-01T15:19:04.748Z,74.97
2019-03-01T15:21:34.110Z,82.90
2019-03-01T15:24:03.508Z,72.23
2019-03-01T15:26:32.194Z,69.20
2019-03-01T15:29:00.911Z,76.03
2019-03-01T15:31:29.591Z,76.93
2019-03-01T15:33:58.207Z,78.30
2019-03-01T15:36:26.937Z,77.03
2019-03-01T15:38:55.652Z,75.67
2019-03-01T15:41:24.351Z,70.30
2019-03-01T15:43:53.058Z,76.50
2019-03-01T15:46:21.795Z,75.00
2019-03-01T15:48:50.464Z,82.00
2019-03-01T15:51:19.098Z,73.87
2019-03-01T15:53:47.728Z,72.80
2019-03-01T15:56:16.504Z,78.20
2019-03-01T15:58:46.603Z,70.53
2019-03-01T16:01:15.594Z,71.10
2019-03-01T16:03:44.295Z,75.43
2019-03-01T16:06:17.510Z,59.67
2019-03-01T16:08:43.855Z,58.17
2019-03-01T16:11:14.037Z,56.33
2019-03-01T16:13:47.790Z,57.50
2019-03-01T16:16:13.822Z,67.50
2019-03-01T16:18:43.105Z,58.50
2019-03-01T16:21:11.945Z,64.87
2019-03-01T16:23:40.570Z,55.40
2019-03-01T16:26:09.195Z,56.80
2019-03-01T16:28:37.913Z,55.70
2019-03-01T16:31:06.545Z,55.53
2019-03-01T16:33:35.188Z,51.80
2019-03-01T16:36:06.197Z,58.10
2019-03-01T16:38:40.942Z,58.60
2019-03-01T16:41:07.706Z,57.13
2019-03-01T16:43:35.578Z,52.37
2019-03-01T16:46:04.227Z,50.67
2019-03-01T16:48:32.892Z,45.73
2019-03-01T16:51:01.534Z,52.20
2019-03-01T16:53:30.189Z,59.83
2019-03-01T16:55:59.273Z,51.00
2019-03-01T16:58:29.221Z,55.43
2019-03-01T17:00:57.845Z,47.97
2019-03-01T17:03:26.465Z,53.77
2019-03-01T17:05:55.193Z,45.60
2019-03-01T17:08:23.818Z,52.07
2019-03-01T17:10:52.444Z,46.00
2019-03-01T17:13:23.610Z,44.57
2019-03-01T17:15:51.694Z,46.23
2019-03-01T17:18:20.317Z,52.10
2019-03-01T17:20:48.952Z,46.80
2019-03-01T17:23:17.626Z,47.53
2019-03-01T17:25:47.673Z,48.67
2019-03-01T17:28:22.604Z,46.57
2019-03-01T17:30:50.347Z,46.43
2019-03-01T17:33:17.062Z,45.30
2019-03-01T17:35:45.690Z,50.70
2019-03-01T17:38:14.328Z,43.40
2019-03-01T17:40:43.086Z,40.33
2019-03-01T17:43:11.724Z,34.43
2019-03-01T17:45:40.412Z,34.90
2019-03-01T17:48:09.055Z,39.75
2019-03-01T17:50:37.704Z,40.00
2019-03-01T17:53:09.519Z,33.53
2019-03-01T17:55:37.565Z,37.47
2019-03-01T17:58:08.957Z,33.90
2019-03-01T18:00:37.876Z,31.80
2019-03-01T18:03:06.681Z,28.60
2019-03-01T18:05:37.086Z,31.63
2019-03-01T18:08:05.690Z,27.00
2019-03-01T18:10:34.412Z,28.67
2019-03-01T18:13:03.168Z,29.50
2019-03-01T18:15:31.918Z,28.33
2019-03-01T18:18:00.611Z,26.77
2019-03-01T18:20:29.321Z,25.40
2019-03-01T18:22:59.325Z,32.17
2019-03-01T18:25:28.419Z,24.07
2019-03-01T18:27:57.060Z,22.27
2019-03-01T18:30:25.817Z,23.60
2019-03-01T18:32:54.449Z,19.63
2019-03-01T18:35:23.074Z,23.97
2019-03-01T18:37:55.089Z,27.93
2019-03-01T18:40:23.417Z,21.43
2019-03-01T18:42:51.989Z,23.20
2019-03-01T18:45:20.807Z,21.40
2019-03-01T18:47:49.494Z,19.93
2019-03-01T18:50:20.841Z,23.83
2019-03-01T18:52:53.063Z,26.00
2019-03-01T18:55:20.032Z,23.87
2019-03-01T18:57:53.083Z,21.77
2019-03-01T19:00:24.475Z,25.20
2019-03-01T19:02:53.156Z,28.47
2019-03-01T19:05:22.133Z,23.60
2019-03-01T19:07:50.852Z,17.90
2019-03-01T19:10:19.673Z,18.40
2019-03-01T19:12:49.566Z,20.60
2019-03-01T19:15:18.495Z,19.03
2019-03-01T19:17:47.242Z,17.13
2019-03-01T19:20:18.471Z,18.43
2019-03-01T19:22:47.691Z,15.63
2019-03-01T19:25:21.693Z,15.70
2019-03-01T19:27:52.607Z,18.53
2019-03-01T19:30:24.186Z,17.90
2019-03-01T19:32:58.948Z,20.10
2019-03-01T19:35:29.788Z,24.37
2019-03-01T19:37:58.551Z,23.50
2019-03-01T19:40:27.282Z,25.93
2019-03-01T19:42:57.400Z,25.60
2019-03-01T19:45:27.154Z,24.87
2019-03-01T19:48:01.295Z,28.80
2019-03-01T19:50:40.984Z,33.73
2019-03-01T19:53:12.827Z,35.63
2019-03-01T19:55:47.301Z,32.60
2019-03-01T19:58:20.842Z,35.92
2019-03-01T20:00:49.832Z,33.95
2019-03-01T20:03:21.473Z,33.97
2019-03-01T20:05:51.485Z,31.90
2019-03-01T20:08:26.445Z,29.90
2019-03-01T20:10:56.180Z,31.75
2019-03-01T20:13:26.674Z,28.73
2019-03-01T20:15:55.529Z,28.77
2019-03-01T20:18:24.306Z,26.30
2019-03-01T20:20:54.452Z,27.15
2019-03-01T20:23:31.520Z,24.32
2019-03-01T20:26:01.722Z,27.67
2019-03-01T20:28:30.657Z,25.53
2019-03-01T20:31:04.873Z,25.35
2019-03-01T20:33:34.675Z,26.00
2019-03-01T20:36:04.312Z,24.50
2019-03-01T20:38:37.026Z,25.17
2019-03-01T20:41:05.877Z,24.67
2019-03-01T20:43:41.706Z,28.93
2019-03-01T20:46:12.472Z,25.30
2019-03-01T20:48:41.654Z,26.73
2019-03-01T20:51:14.409Z,25.00
2019-03-01T20:53:49.504Z,24.72
2019-03-01T20:56:27.721Z,25.43
2019-03-01T20:58:58.154Z,24.50
2019-03-01T21:01:27.759Z,23.63
2019-03-01T21:03:56.867Z,26.43
2019-03-01T21:06:34.024Z,25.23
2019-03-01T21:09:08.135Z,27.20
2019-03-01T21:11:41.684Z,29.27
2019-03-01T21:14:12.701Z,25.67
2019-03-01T21:16:44.799Z,28.33
2019-03-01T21:19:25.828Z,27.17
2019-03-01T21:21:56.356Z,27.70
2019-03-01T21:24:26.619Z,27.03
2019-03-01T21:26:57.531Z,27.98
2019-03-01T21:29:28.093Z,27.27
2019-03-01T21:31:57.292Z,30.05
2019-03-01T21:34:26.179Z,22.37
2019-03-01T21:36:55.349Z,25.35
2019-03-01T21:39:25.023Z,24.47
2019-03-01T21:42:00.736Z,27.98
2019-03-01T21:44:31.463Z,26.50
2019-03-01T21:47:06.919Z,27.48
2019-03-01T21:49:36.457Z,25.23
2019-03-01T21:52:33.169Z,27.17
2019-03-01T21:55:02.831Z,28.60
2019-03-01T21:57:34.956Z,27.13
2019-03-01T22:00:05.347Z,30.93
2019-03-01T22:02:35.497Z,34.92
2019-03-01T22:05:05.490Z,28.55
2019-03-01T22:07:37.148Z,29.70
2019-03-01T22:10:11.752Z,28.30
2019-03-01T22:12:41.894Z,26.93
2019-03-01T22:15:15.669Z,26.67
2019-03-01T22:17:45.340Z,28.30
2019-03-01T22:20:37.335Z,31.82
2019-03-01T22:23:09.813Z,30.35
2019-03-01T22:25:39.639Z,23.60
2019-03-01T22:28:11.103Z,27.20
2019-03-01T22:31:00.163Z,30.68
2019-03-01T22:33:29.556Z,27.93
2019-03-01T22:36:01.600Z,26.25
2019-03-01T22:38:30.590Z,34.17
2019-03-01T22:41:00.585Z,23.05
2019-03-01T22:43:33.180Z,32.13
2019-03-01T22:46:02.455Z,28.85
2019-03-01T22:48:34.554Z,29.90
2019-03-01T22:51:03.442Z,27.10
2019-03-01T22:53:32.439Z,31.95
2019-03-01T22:56:02.009Z,25.32
2019-03-01T22:58:32.723Z,28.73
2019-03-01T23:01:25.959Z,28.90
2019-03-01T23:04:22.933Z,30.20
2019-03-01T23:06:52.734Z,28.70
2019-03-01T23:09:22.608Z,34.50
2019-03-01T23:12:09.523Z,31.60
2019-03-01T23:14:39.059Z,27.53
2019-03-01T23:19:47.746Z,28.30
2019-03-01T23:22:17.087Z,30.35
2019-03-01T23:24:46.830Z,33.78
2019-03-01T23:27:17.559Z,30.50
2019-03-01T23:29:46.875Z,35.55
2019-03-01T23:32:16.752Z,33.57
2019-03-01T23:34:46.172Z,30.88
2019-03-01T23:37:54.248Z,29.48
2019-03-01T23:40:25.686Z,29.17
2019-03-01T23:42:57.139Z,34.27
2019-03-01T23:45:28.229Z,32.42
2019-03-01T23:48:01.371Z,33.88
2019-03-01T23:50:34.886Z,29.67
2019-03-01T23:53:05.635Z,29.98
2019-03-01T23:55:36.101Z,28.40
2019-03-01T23:58:06.259Z,28.65
